sensor_id;sensor_type;location;lat;lon;timestamp;P1;durP1;ratioP1;P2;durP2;ratioP2
14994;SDS011;7593;49.006;8.372;2023-03-01T00:01:16;11.00;;;9.07;;
14994;SDS011;7593;49.006;8.372;2023-03-01T00:03:45;11.80;;;9.13;;
14994;SDS011;7593;49.006;8.372;2023-03-01T00:06:12;13.30;;;9.63;;
14994;SDS011;7593;49.006;8.372;2023-03-01T00:08:40;12.57;;;9.07;;
14994;SDS011;7593;49.006;8.372;2023-03-01T00:11:09;12.17;;;9.03;;
14994;SDS011;7593;49.006;8.372;2023-03-01T00:13:38;10.63;;;8.70;;
14994;SDS011;7593;49.006;8.372;2023-03-01T00:16:05;12.03;;;8.67;;
14994;SDS011;7593;49.006;8.372;2023-03-01T00:18:33;10.87;;;8.80;;
14994;SDS011;7593;49.006;8.372;2023-03-01T00:21:01;11.13;;;8.87;;
14994;SDS011;7593;49.006;8.372;2023-03-01T00:23:28;10.47;;;8.57;;
14994;SDS011;7593;49.006;8.372;2023-03-01T00:25:59;11.43;;;8.90;;
14994;SDS011;7593;49.006;8.372;2023-03-01T00:28:25;11.13;;;9.50;;
14994;SDS011;7593;49.006;8.372;2023-03-01T00:30:52;12.53;;;8.60;;
14994;SDS011;7593;49.006;8.372;2023-03-01T00:33:19;9.90;;;8.50;;
14994;SDS011;7593;49.006;8.372;2023-03-01T00:35:46;13.60;;;8.30;;
14994;SDS011;7593;49.006;8.372;2023-03-01T00:38:12;11.60;;;9.17;;
14994;SDS011;7593;49.006;8.372;2023-03-01T00:40:39;12.93;;;8.73;;
14994;SDS011;7593;49.006;8.372;2023-03-01T00:43:07;11.23;;;8.87;;
14994;SDS011;7593;49.006;8.372;2023-03-01T00:45:35;9.97;;;8.53;;
14994;SDS011;7593;49.006;8.372;2023-03-01T00:48:02;11.37;;;8.83;;
14994;SDS011;7593;49.006;8.372;2023-03-01T00:50:30;10.40;;;8.47;;
14994;SDS011;7593;49.006;8.372;2023-03-01T00:52:57;11.40;;;8.63;;
14994;SDS011;7593;49.006;8.372;2023-03-01T00:55:24;9.73;;;7.77;;
14994;SDS011;7593;49.006;8.372;2023-03-01T00:57:52;10.50;;;8.67;;
14994;SDS011;7593;49.006;8.372;2023-03-01T01:00:20;11.90;;;8.83;;
14994;SDS011;7593;49.006;8.372;2023-03-01T01:02:47;16.87;;;8.03;;
14994;SDS011;7593;49.006;8.372;2023-03-01T01:05:14;10.30;;;8.53;;
14994;SDS011;7593;49.006;8.372;2023-03-01T01:07:46;11.10;;;8.47;;
14994;SDS011;7593;49.006;8.372;2023-03-01T01:10:13;12.90;;;8.50;;
14994;SDS011;7593;49.006;8.372;2023-03-01T01:12:42;10.40;;;8.97;;
14994;SDS011;7593;49.006;8.372;2023-03-01T01:15:09;10.63;;;8.13;;
14994;SDS011;7593;49.006;8.372;2023-03-01T01:17:40;10.77;;;8.77;;
14994;SDS011;7593;49.006;8.372;2023-03-01T01:20:07;10.07;;;8.47;;
14994;SDS011;7593;49.006;8.372;2023-03-01T01:22:34;11.90;;;8.90;;
14994;SDS011;7593;49.006;8.372;2023-03-01T01:25:01;11.87;;;8.37;;
14994;SDS011;7593;49.006;8.372;2023-03-01T01:27:29;10.87;;;9.13;;
14994;SDS011;7593;49.006;8.372;2023-03-01T01:29:56;11.30;;;8.70;;
14994;SDS011;7593;49.006;8.372;2023-03-01T01:32:23;10.70;;;8.77;;
14994;SDS011;7593;49.006;8.372;2023-03-01T01:34:51;11.13;;;9.10;;
14994;SDS011;7593;49.006;8.372;2023-03-01T01:37:18;11.87;;;8.83;;
14994;SDS011;7593;49.006;8.372;2023-03-01T01:39:44;12.83;;;9.40;;
14994;SDS011;7593;49.006;8.372;2023-03-01T01:42:12;10.63;;;8.63;;
14994;SDS011;7593;49.006;8.372;2023-03-01T01:44:42;10.57;;;8.57;;
14994;SDS011;7593;49.006;8.372;2023-03-01T01:47:12;9.50;;;8.40;;
14994;SDS011;7593;49.006;8.372;2023-03-01T01:49:44;12.00;;;9.00;;
14994;SDS011;7593;49.006;8.372;2023-03-01T01:52:16;11.07;;;8.60;;
14994;SDS011;7593;49.006;8.372;2023-03-01T01:54:47;11.17;;;8.93;;
14994;SDS011;7593;49.006;8.372;2023-03-01T01:57:18;10.57;;;8.83;;
14994;SDS011;7593;49.006;8.372;2023-03-01T01:59:48;10.97;;;9.50;;
14994;SDS011;7593;49.006;8.372;2023-03-01T02:02:18;11.77;;;9.10;;
14994;SDS011;7593;49.006;8.372;2023-03-01T02:04:45;10.93;;;9.00;;
14994;SDS011;7593;49.006;8.372;2023-03-01T02:07:14;12.37;;;9.03;;
14994;SDS011;7593;49.006;8.372;2023-03-01T02:09:45;10.50;;;9.27;;
14994;SDS011;7593;49.006;8.372;2023-03-01T02:12:14;11.90;;;9.43;;
14994;SDS011;7593;49.006;8.372;2023-03-01T02:14:43;12.87;;;9.60;;
14994;SDS011;7593;49.006;8.372;2023-03-01T02:17:10;11.73;;;9.07;;
14994;SDS011;7593;49.006;8.372;2023-03-01T02:19:44;22.23;;;10.13;;
14994;SDS011;7593;49.006;8.372;2023-03-01T02:22:24;11.70;;;8.90;;
14994;SDS011;7593;49.006;8.372;2023-03-01T02:24:57;12.03;;;9.93;;
14994;SDS011;7593;49.006;8.372;2023-03-01T02:27:36;10.50;;;9.03;;
14994;SDS011;7593;49.006;8.372;2023-03-01T02:30:08;12.63;;;9.63;;
14994;SDS011;7593;49.006;8.372;2023-03-01T02:32:37;11.97;;;9.20;;
14994;SDS011;7593;49.006;8.372;2023-03-01T02:35:06;11.27;;;9.10;;
14994;SDS011;7593;49.006;8.372;2023-03-01T02:37:36;11.33;;;9.57;;
14994;SDS011;7593;49.006;8.372;2023-03-01T02:40:04;13.57;;;9.73;;
14994;SDS011;7593;49.006;8.372;2023-03-01T02:42:36;11.80;;;9.57;;
14994;SDS011;7593;49.006;8.372;2023-03-01T02:45:13;12.03;;;8.73;;
14994;SDS011;7593;49.006;8.372;2023-03-01T02:47:39;13.87;;;9.73;;
14994;SDS011;7593;49.006;8.372;2023-03-01T02:50:11;12.53;;;9.90;;
14994;SDS011;7593;49.006;8.372;2023-03-01T02:52:53;12.80;;;9.47;;
14994;SDS011;7593;49.006;8.372;2023-03-01T02:55:27;12.37;;;9.97;;
14994;SDS011;7593;49.006;8.372;2023-03-01T02:57:54;12.07;;;9.50;;
14994;SDS011;7593;49.006;8.372;2023-03-01T03:00:24;10.67;;;9.47;;
14994;SDS011;7593;49.006;8.372;2023-03-01T03:02:58;16.60;;;10.43;;
14994;SDS011;7593;49.006;8.372;2023-03-01T03:05:25;13.57;;;10.03;;
14994;SDS011;7593;49.006;8.372;2023-03-01T03:07:54;12.53;;;9.73;;
14994;SDS011;7593;49.006;8.372;2023-03-01T03:10:23;11.73;;;9.77;;
14994;SDS011;7593;49.006;8.372;2023-03-01T03:12:51;13.77;;;10.40;;
14994;SDS011;7593;49.006;8.372;2023-03-01T03:15:20;11.70;;;9.77;;
14994;SDS011;7593;49.006;8.372;2023-03-01T03:17:50;13.03;;;9.70;;
14994;SDS011;7593;49.006;8.372;2023-03-01T03:20:18;14.40;;;10.83;;
14994;SDS011;7593;49.006;8.372;2023-03-01T03:22:48;12.17;;;10.10;;
14994;SDS011;7593;49.006;8.372;2023-03-01T03:25:16;13.27;;;10.70;;
14994;SDS011;7593;49.006;8.372;2023-03-01T03:27:45;13.07;;;10.40;;
14994;SDS011;7593;49.006;8.372;2023-03-01T03:30:16;13.07;;;9.93;;
14994;SDS011;7593;49.006;8.372;2023-03-01T03:32:45;12.80;;;9.90;;
14994;SDS011;7593;49.006;8.372;2023-03-01T03:35:18;13.13;;;9.87;;
14994;SDS011;7593;49.006;8.372;2023-03-01T03:37:46;13.07;;;10.53;;
14994;SDS011;7593;49.006;8.372;2023-03-01T03:40:28;12.83;;;10.13;;
14994;SDS011;7593;49.006;8.372;2023-03-01T03:42:57;13.60;;;10.20;;
14994;SDS011;7593;49.006;8.372;2023-03-01T03:45:24;14.80;;;10.43;;
14994;SDS011;7593;49.006;8.372;2023-03-01T03:47:51;14.43;;;10.37;;
14994;SDS011;7593;49.006;8.372;2023-03-01T03:50:19;12.90;;;10.67;;
14994;SDS011;7593;49.006;8.372;2023-03-01T03:52:46;12.27;;;10.47;;
14994;SDS011;7593;49.006;8.372;2023-03-01T03:55:13;12.50;;;10.47;;
14994;SDS011;7593;49.006;8.372;2023-03-01T03:57:44;13.03;;;11.07;;
14994;SDS011;7593;49.006;8.372;2023-03-01T04:00:17;14.93;;;10.90;;
14994;SDS011;7593;49.006;8.372;2023-03-01T04:02:46;11.87;;;10.10;;
14994;SDS011;7593;49.006;8.372;2023-03-01T04:05:14;13.33;;;10.67;;
14994;SDS011;7593;49.006;8.372;2023-03-01T04:07:44;15.03;;;11.30;;
14994;SDS011;7593;49.006;8.372;2023-03-01T04:10:12;16.77;;;11.13;;
14994;SDS011;7593;49.006;8.372;2023-03-01T04:12:40;13.80;;;11.23;;
14994;SDS011;7593;49.006;8.372;2023-03-01T04:15:08;15.93;;;11.43;;
14994;SDS011;7593;49.006;8.372;2023-03-01T04:17:38;14.20;;;11.10;;
14994;SDS011;7593;49.006;8.372;2023-03-01T04:20:06;13.83;;;10.90;;
14994;SDS011;7593;49.006;8.372;2023-03-01T04:22:34;15.47;;;11.53;;
14994;SDS011;7593;49.006;8.372;2023-03-01T04:25:03;14.13;;;11.00;;
14994;SDS011;7593;49.006;8.372;2023-03-01T04:27:31;15.63;;;11.10;;
14994;SDS011;7593;49.006;8.372;2023-03-01T04:29:58;13.03;;;10.90;;
14994;SDS011;7593;49.006;8.372;2023-03-01T04:32:25;13.43;;;10.70;;
14994;SDS011;7593;49.006;8.372;2023-03-01T04:34:52;13.70;;;11.13;;
14994;SDS011;7593;49.006;8.372;2023-03-01T04:37:20;15.07;;;12.07;;
14994;SDS011;7593;49.006;8.372;2023-03-01T04:39:47;13.27;;;10.67;;
14994;SDS011;7593;49.006;8.372;2023-03-01T04:42:15;13.30;;;11.13;;
14994;SDS011;7593;49.006;8.372;2023-03-01T04:44:42;15.63;;;11.73;;
14994;SDS011;7593;49.006;8.372;2023-03-01T04:47:09;16.43;;;10.67;;
14994;SDS011;7593;49.006;8.372;2023-03-01T04:49:37;14.70;;;11.10;;
14994;SDS011;7593;49.006;8.372;2023-03-01T04:52:04;13.83;;;12.07;;
14994;SDS011;7593;49.006;8.372;2023-03-01T04:54:32;15.80;;;11.47;;
14994;SDS011;7593;49.006;8.372;2023-03-01T04:57:00;16.30;;;11.80;;
14994;SDS011;7593;49.006;8.372;2023-03-01T04:59:28;14.47;;;10.97;;
14994;SDS011;7593;49.006;8.372;2023-03-01T05:01:55;15.60;;;11.10;;
14994;SDS011;7593;49.006;8.372;2023-03-01T05:04:25;14.97;;;11.10;;
14994;SDS011;7593;49.006;8.372;2023-03-01T05:06:52;13.33;;;11.27;;
14994;SDS011;7593;49.006;8.372;2023-03-01T05:09:19;13.47;;;10.73;;
14994;SDS011;7593;49.006;8.372;2023-03-01T05:11:46;14.47;;;11.13;;
14994;SDS011;7593;49.006;8.372;2023-03-01T05:14:13;14.93;;;11.60;;
14994;SDS011;7593;49.006;8.372;2023-03-01T05:16:41;13.07;;;11.07;;
14994;SDS011;7593;49.006;8.372;2023-03-01T05:19:08;18.07;;;11.77;;
14994;SDS011;7593;49.006;8.372;2023-03-01T05:21:40;15.10;;;11.40;;
14994;SDS011;7593;49.006;8.372;2023-03-01T05:24:21;16.20;;;11.37;;
14994;SDS011;7593;49.006;8.372;2023-03-01T05:26:48;14.23;;;10.97;;
14994;SDS011;7593;49.006;8.372;2023-03-01T05:29:16;13.43;;;10.53;;
14994;SDS011;7593;49.006;8.372;2023-03-01T05:31:47;16.27;;;13.37;;
14994;SDS011;7593;49.006;8.372;2023-03-01T05:34:13;16.53;;;12.83;;
14994;SDS011;7593;49.006;8.372;2023-03-01T05:36:40;15.37;;;12.20;;
14994;SDS011;7593;49.006;8.372;2023-03-01T05:39:07;14.50;;;11.33;;
14994;SDS011;7593;49.006;8.372;2023-03-01T05:41:34;16.03;;;11.97;;
14994;SDS011;7593;49.006;8.372;2023-03-01T05:44:03;16.37;;;12.57;;
14994;SDS011;7593;49.006;8.372;2023-03-01T05:46:32;20.40;;;11.97;;
14994;SDS011;7593;49.006;8.372;2023-03-01T05:49:02;21.10;;;11.87;;
14994;SDS011;7593;49.006;8.372;2023-03-01T05:51:29;17.67;;;12.40;;
14994;SDS011;7593;49.006;8.372;2023-03-01T05:53:57;16.97;;;12.53;;
14994;SDS011;7593;49.006;8.372;2023-03-01T05:56:24;17.20;;;12.80;;
14994;SDS011;7593;49.006;8.372;2023-03-01T05:58:50;15.80;;;12.27;;
14994;SDS011;7593;49.006;8.372;2023-03-01T06:01:17;15.63;;;11.70;;
14994;SDS011;7593;49.006;8.372;2023-03-01T06:03:44;16.17;;;12.30;;
14994;SDS011;7593;49.006;8.372;2023-03-01T06:06:12;15.83;;;12.93;;
14994;SDS011;7593;49.006;8.372;2023-03-01T06:08:39;17.60;;;12.30;;
14994;SDS011;7593;49.006;8.372;2023-03-01T06:11:05;16.27;;;12.60;;
14994;SDS011;7593;49.006;8.372;2023-03-01T06:13:32;17.07;;;12.37;;
14994;SDS011;7593;49.006;8.372;2023-03-01T06:15:59;18.07;;;12.43;;
14994;SDS011;7593;49.006;8.372;2023-03-01T06:18:26;16.40;;;12.57;;
14994;SDS011;7593;49.006;8.372;2023-03-01T06:20:53;16.50;;;12.50;;
14994;SDS011;7593;49.006;8.372;2023-03-01T06:23:21;18.13;;;12.70;;
14994;SDS011;7593;49.006;8.372;2023-03-01T06:25:49;17.10;;;12.37;;
14994;SDS011;7593;49.006;8.372;2023-03-01T06:28:16;15.97;;;12.37;;
14994;SDS011;7593;49.006;8.372;2023-03-01T06:30:43;16.90;;;12.60;;
14994;SDS011;7593;49.006;8.372;2023-03-01T06:33:09;16.23;;;13.03;;
14994;SDS011;7593;49.006;8.372;2023-03-01T06:35:36;15.97;;;11.97;;
14994;SDS011;7593;49.006;8.372;2023-03-01T06:38:04;16.10;;;12.87;;
14994;SDS011;7593;49.006;8.372;2023-03-01T06:40:32;16.23;;;12.83;;
14994;SDS011;7593;49.006;8.372;2023-03-01T06:43:00;17.27;;;13.20;;
14994;SDS011;7593;49.006;8.372;2023-03-01T06:45:27;16.87;;;13.27;;
14994;SDS011;7593;49.006;8.372;2023-03-01T06:48:00;17.10;;;13.20;;
14994;SDS011;7593;49.006;8.372;2023-03-01T06:50:28;17.73;;;13.30;;
14994;SDS011;7593;49.006;8.372;2023-03-01T06:52:55;19.00;;;13.43;;
14994;SDS011;7593;49.006;8.372;2023-03-01T06:55:23;16.13;;;13.17;;
14994;SDS011;7593;49.006;8.372;2023-03-01T06:57:54;17.20;;;13.17;;
14994;SDS011;7593;49.006;8.372;2023-03-01T07:00:22;25.17;;;12.70;;
14994;SDS011;7593;49.006;8.372;2023-03-01T07:02:50;17.17;;;13.40;;
14994;SDS011;7593;49.006;8.372;2023-03-01T07:05:17;21.77;;;13.50;;
14994;SDS011;7593;49.006;8.372;2023-03-01T07:07:44;15.23;;;12.87;;
14994;SDS011;7593;49.006;8.372;2023-03-01T07:10:11;16.90;;;13.03;;
14994;SDS011;7593;49.006;8.372;2023-03-01T07:12:38;19.43;;;12.93;;
14994;SDS011;7593;49.006;8.372;2023-03-01T07:15:08;18.60;;;13.80;;
14994;SDS011;7593;49.006;8.372;2023-03-01T07:17:36;18.50;;;13.90;;
14994;SDS011;7593;49.006;8.372;2023-03-01T07:20:03;16.27;;;13.73;;
14994;SDS011;7593;49.006;8.372;2023-03-01T07:22:30;17.00;;;13.17;;
14994;SDS011;7593;49.006;8.372;2023-03-01T07:24:57;18.67;;;13.40;;
14994;SDS011;7593;49.006;8.372;2023-03-01T07:27:23;19.60;;;13.07;;
14994;SDS011;7593;49.006;8.372;2023-03-01T07:29:51;16.77;;;12.67;;
14994;SDS011;7593;49.006;8.372;2023-03-01T07:32:19;16.53;;;13.00;;
14994;SDS011;7593;49.006;8.372;2023-03-01T07:34:45;21.10;;;13.77;;
14994;SDS011;7593;49.006;8.372;2023-03-01T07:37:12;17.63;;;13.80;;
14994;SDS011;7593;49.006;8.372;2023-03-01T07:39:40;16.07;;;12.70;;
14994;SDS011;7593;49.006;8.372;2023-03-01T07:42:07;17.20;;;13.90;;
14994;SDS011;7593;49.006;8.372;2023-03-01T07:44:34;16.37;;;13.60;;
14994;SDS011;7593;49.006;8.372;2023-03-01T07:47:01;15.97;;;13.20;;
14994;SDS011;7593;49.006;8.372;2023-03-01T07:49:30;17.57;;;13.43;;
14994;SDS011;7593;49.006;8.372;2023-03-01T07:51:56;16.20;;;13.63;;
14994;SDS011;7593;49.006;8.372;2023-03-01T07:54:23;17.07;;;13.63;;
14994;SDS011;7593;49.006;8.372;2023-03-01T07:56:51;15.67;;;13.50;;
14994;SDS011;7593;49.006;8.372;2023-03-01T07:59:19;18.13;;;13.93;;
14994;SDS011;7593;49.006;8.372;2023-03-01T08:01:46;14.93;;;13.17;;
14994;SDS011;7593;49.006;8.372;2023-03-01T08:04:13;17.90;;;14.40;;
14994;SDS011;7593;49.006;8.372;2023-03-01T08:06:41;17.73;;;14.90;;
14994;SDS011;7593;49.006;8.372;2023-03-01T08:09:08;17.60;;;13.77;;
14994;SDS011;7593;49.006;8.372;2023-03-01T08:11:34;18.40;;;13.33;;
14994;SDS011;7593;49.006;8.372;2023-03-01T08:14:01;19.10;;;13.93;;
14994;SDS011;7593;49.006;8.372;2023-03-01T08:16:28;17.90;;;13.83;;
14994;SDS011;7593;49.006;8.372;2023-03-01T08:18:55;16.37;;;13.10;;
14994;SDS011;7593;49.006;8.372;2023-03-01T08:21:25;18.17;;;14.17;;
14994;SDS011;7593;49.006;8.372;2023-03-01T08:23:53;15.40;;;13.60;;
14994;SDS011;7593;49.006;8.372;2023-03-01T08:26:21;18.53;;;13.53;;
14994;SDS011;7593;49.006;8.372;2023-03-01T08:28:48;15.43;;;13.50;;
14994;SDS011;7593;49.006;8.372;2023-03-01T08:31:16;16.50;;;13.80;;
14994;SDS011;7593;49.006;8.372;2023-03-01T08:33:45;16.40;;;14.27;;
14994;SDS011;7593;49.006;8.372;2023-03-01T08:36:15;16.47;;;13.70;;
14994;SDS011;7593;49.006;8.372;2023-03-01T08:38:43;17.47;;;14.13;;
14994;SDS011;7593;49.006;8.372;2023-03-01T08:41:12;17.77;;;15.00;;
14994;SDS011;7593;49.006;8.372;2023-03-01T08:43:39;17.20;;;13.97;;
14994;SDS011;7593;49.006;8.372;2023-03-01T08:46:06;18.33;;;14.13;;
14994;SDS011;7593;49.006;8.372;2023-03-01T08:48:32;18.97;;;14.37;;
14994;SDS011;7593;49.006;8.372;2023-03-01T08:51:06;16.93;;;13.73;;
14994;SDS011;7593;49.006;8.372;2023-03-01T08:53:34;14.90;;;12.90;;
14994;SDS011;7593;49.006;8.372;2023-03-01T08:56:01;19.17;;;13.45;;
14994;SDS011;7593;49.006;8.372;2023-03-01T08:58:29;17.23;;;13.57;;
14994;SDS011;7593;49.006;8.372;2023-03-01T09:00:56;16.43;;;14.20;;
14994;SDS011;7593;49.006;8.372;2023-03-01T09:03:24;14.63;;;12.77;;
14994;SDS011;7593;49.006;8.372;2023-03-01T09:05:51;18.20;;;14.43;;
14994;SDS011;7593;49.006;8.372;2023-03-01T09:08:18;16.37;;;13.87;;
14994;SDS011;7593;49.006;8.372;2023-03-01T09:10:46;18.67;;;14.97;;
14994;SDS011;7593;49.006;8.372;2023-03-01T09:13:12;16.17;;;14.13;;
14994;SDS011;7593;49.006;8.372;2023-03-01T09:15:40;17.87;;;14.17;;
14994;SDS011;7593;49.006;8.372;2023-03-01T09:18:07;17.17;;;14.10;;
14994;SDS011;7593;49.006;8.372;2023-03-01T09:20:34;15.80;;;13.53;;
14994;SDS011;7593;49.006;8.372;2023-03-01T09:23:01;15.43;;;13.83;;
14994;SDS011;7593;49.006;8.372;2023-03-01T09:25:28;17.13;;;14.33;;
14994;SDS011;7593;49.006;8.372;2023-03-01T09:27:54;15.70;;;14.10;;
14994;SDS011;7593;49.006;8.372;2023-03-01T09:30:21;16.35;;;13.95;;
14994;SDS011;7593;49.006;8.372;2023-03-01T09:32:50;16.33;;;14.53;;
14994;SDS011;7593;49.006;8.372;2023-03-01T09:35:17;15.65;;;13.38;;
14994;SDS011;7593;49.006;8.372;2023-03-01T09:37:45;18.23;;;14.80;;
14994;SDS011;7593;49.006;8.372;2023-03-01T09:40:12;16.73;;;14.75;;
14994;SDS011;7593;49.006;8.372;2023-03-01T09:42:46;20.13;;;14.63;;
14994;SDS011;7593;49.006;8.372;2023-03-01T09:45:19;17.45;;;15.45;;
14994;SDS011;7593;49.006;8.372;2023-03-01T09:47:57;18.67;;;15.48;;
14994;SDS011;7593;49.006;8.372;2023-03-01T09:50:24;17.10;;;14.38;;
14994;SDS011;7593;49.006;8.372;2023-03-01T09:52:54;16.55;;;14.75;;
14994;SDS011;7593;49.006;8.372;2023-03-01T09:55:29;16.85;;;15.13;;
14994;SDS011;7593;49.006;8.372;2023-03-01T09:57:58;19.27;;;16.05;;
14994;SDS011;7593;49.006;8.372;2023-03-01T10:00:35;17.05;;;15.25;;
14994;SDS011;7593;49.006;8.372;2023-03-01T10:03:10;17.15;;;15.35;;
14994;SDS011;7593;49.006;8.372;2023-03-01T10:05:44;19.00;;;14.75;;
14994;SDS011;7593;49.006;8.372;2023-03-01T10:08:25;15.63;;;13.90;;
14994;SDS011;7593;49.006;8.372;2023-03-01T10:11:17;18.63;;;15.30;;
14994;SDS011;7593;49.006;8.372;2023-03-01T10:13:48;16.27;;;14.25;;
14994;SDS011;7593;49.006;8.372;2023-03-01T10:16:21;18.80;;;15.25;;
14994;SDS011;7593;49.006;8.372;2023-03-01T10:18:55;16.75;;;15.00;;
14994;SDS011;7593;49.006;8.372;2023-03-01T10:21:25;18.13;;;15.02;;
14994;SDS011;7593;49.006;8.372;2023-03-01T10:23:56;17.05;;;15.23;;
14994;SDS011;7593;49.006;8.372;2023-03-01T10:26:38;18.48;;;14.40;;
14994;SDS011;7593;49.006;8.372;2023-03-01T10:29:11;16.80;;;15.10;;
14994;SDS011;7593;49.006;8.372;2023-03-01T10:31:40;18.45;;;14.10;;
14994;SDS011;7593;49.006;8.372;2023-03-01T10:34:11;19.33;;;15.45;;
14994;SDS011;7593;49.006;8.372;2023-03-01T10:36:41;16.85;;;15.05;;
14994;SDS011;7593;49.006;8.372;2023-03-01T10:39:13;18.48;;;15.85;;
14994;SDS011;7593;49.006;8.372;2023-03-01T10:41:51;17.05;;;15.25;;
14994;SDS011;7593;49.006;8.372;2023-03-01T10:44:36;18.02;;;15.75;;
14994;SDS011;7593;49.006;8.372;2023-03-01T10:47:05;19.08;;;15.38;;
14994;SDS011;7593;49.006;8.372;2023-03-01T10:49:42;16.67;;;14.90;;
14994;SDS011;7593;49.006;8.372;2023-03-01T10:52:20;16.55;;;14.90;;
14994;SDS011;7593;49.006;8.372;2023-03-01T10:54:51;17.60;;;14.98;;
14994;SDS011;7593;49.006;8.372;2023-03-01T10:57:26;17.67;;;15.90;;
14994;SDS011;7593;49.006;8.372;2023-03-01T11:02:47;17.05;;;15.25;;
14994;SDS011;7593;49.006;8.372;2023-03-01T11:05:18;18.42;;;16.38;;
14994;SDS011;7593;49.006;8.372;2023-03-01T11:07:49;17.67;;;15.82;;
14994;SDS011;7593;49.006;8.372;2023-03-01T11:10:18;16.88;;;15.18;;
14994;SDS011;7593;49.006;8.372;2023-03-01T11:12:47;19.60;;;16.02;;
14994;SDS011;7593;49.006;8.372;2023-03-01T11:15:24;18.98;;;15.32;;
14994;SDS011;7593;49.006;8.372;2023-03-01T11:17:53;18.42;;;15.43;;
14994;SDS011;7593;49.006;8.372;2023-03-01T11:20:26;17.35;;;15.55;;
14994;SDS011;7593;49.006;8.372;2023-03-01T11:22:56;17.77;;;15.63;;
14994;SDS011;7593;49.006;8.372;2023-03-01T11:25:27;17.73;;;15.50;;
14994;SDS011;7593;49.006;8.372;2023-03-01T11:27:59;18.30;;;15.43;;
14994;SDS011;7593;49.006;8.372;2023-03-01T11:30:28;18.08;;;15.50;;
14994;SDS011;7593;49.006;8.372;2023-03-01T11:33:03;16.92;;;15.18;;
14994;SDS011;7593;49.006;8.372;2023-03-01T11:35:41;16.98;;;15.18;;
14994;SDS011;7593;49.006;8.372;2023-03-01T11:38:16;17.98;;;15.68;;
14994;SDS011;7593;49.006;8.372;2023-03-01T11:40:48;20.45;;;16.90;;
14994;SDS011;7593;49.006;8.372;2023-03-01T11:43:20;21.38;;;16.77;;
14994;SDS011;7593;49.006;8.372;2023-03-01T11:45:57;20.05;;;15.80;;
14994;SDS011;7593;49.006;8.372;2023-03-01T11:48:52;18.10;;;16.20;;
14994;SDS011;7593;49.006;8.372;2023-03-01T11:51:33;19.63;;;15.65;;
14994;SDS011;7593;49.006;8.372;2023-03-01T11:56:57;17.73;;;15.93;;
14994;SDS011;7593;49.006;8.372;2023-03-01T12:02:46;17.67;;;15.68;;
14994;SDS011;7593;49.006;8.372;2023-03-01T12:05:35;17.48;;;15.73;;
14994;SDS011;7593;49.006;8.372;2023-03-01T12:08:19;17.27;;;15.45;;
14994;SDS011;7593;49.006;8.372;2023-03-01T12:10:52;21.63;;;15.45;;
14994;SDS011;7593;49.006;8.372;2023-03-01T12:13:32;18.48;;;16.58;;
14994;SDS011;7593;49.006;8.372;2023-03-01T12:16:19;20.13;;;15.88;;
14994;SDS011;7593;49.006;8.372;2023-03-01T12:19:03;17.52;;;15.60;;
14994;SDS011;7593;49.006;8.372;2023-03-01T12:21:53;17.77;;;15.88;;
14994;SDS011;7593;49.006;8.372;2023-03-01T12:24:49;18.88;;;16.40;;
14994;SDS011;7593;49.006;8.372;2023-03-01T12:27:39;18.27;;;15.95;;
14994;SDS011;7593;49.006;8.372;2023-03-01T12:30:26;19.60;;;16.23;;
14994;SDS011;7593;49.006;8.372;2023-03-01T12:33:05;17.08;;;15.27;;
14994;SDS011;7593;49.006;8.372;2023-03-01T12:35:54;19.38;;;15.77;;
14994;SDS011;7593;49.006;8.372;2023-03-01T12:38:37;18.60;;;16.50;;
14994;SDS011;7593;49.006;8.372;2023-03-01T12:41:13;17.83;;;15.82;;
14994;SDS011;7593;49.006;8.372;2023-03-01T12:43:57;20.42;;;16.25;;
14994;SDS011;7593;49.006;8.372;2023-03-01T12:46:33;18.02;;;16.15;;
14994;SDS011;7593;49.006;8.372;2023-03-01T12:49:09;17.33;;;15.27;;
14994;SDS011;7593;49.006;8.372;2023-03-01T12:51:39;18.08;;;16.17;;
14994;SDS011;7593;49.006;8.372;2023-03-01T12:54:11;18.00;;;15.68;;
14994;SDS011;7593;49.006;8.372;2023-03-01T12:56:43;18.38;;;16.52;;
14994;SDS011;7593;49.006;8.372;2023-03-01T12:59:17;18.23;;;16.27;;
14994;SDS011;7593;49.006;8.372;2023-03-01T13:01:49;17.10;;;15.48;;
14994;SDS011;7593;49.006;8.372;2023-03-01T13:04:27;18.80;;;15.82;;
14994;SDS011;7593;49.006;8.372;2023-03-01T13:07:09;26.20;;;16.33;;
14994;SDS011;7593;49.006;8.372;2023-03-01T13:09:44;20.73;;;16.38;;
14994;SDS011;7593;49.006;8.372;2023-03-01T13:18:01;26.27;;;15.65;;
14994;SDS011;7593;49.006;8.372;2023-03-01T13:20:30;27.92;;;17.70;;
14994;SDS011;7593;49.006;8.372;2023-03-01T13:23:02;31.15;;;16.38;;
14994;SDS011;7593;49.006;8.372;2023-03-01T13:25:31;25.70;;;15.95;;
14994;SDS011;7593;49.006;8.372;2023-03-01T13:31:04;21.50;;;16.38;;
14994;SDS011;7593;49.006;8.372;2023-03-01T13:33:45;21.20;;;15.18;;
14994;SDS011;7593;49.006;8.372;2023-03-01T13:39:27;21.55;;;15.38;;
14994;SDS011;7593;49.006;8.372;2023-03-01T13:41:56;28.40;;;15.38;;
14994;SDS011;7593;49.006;8.372;2023-03-01T13:44:25;22.77;;;16.23;;
14994;SDS011;7593;49.006;8.372;2023-03-01T13:46:57;45.78;;;15.68;;
14994;SDS011;7593;49.006;8.372;2023-03-01T13:49:29;31.00;;;16.60;;
14994;SDS011;7593;49.006;8.372;2023-03-01T13:52:02;20.38;;;16.02;;
14994;SDS011;7593;49.006;8.372;2023-03-01T13:54:32;27.23;;;15.35;;
14994;SDS011;7593;49.006;8.372;2023-03-01T13:57:00;22.48;;;15.57;;
14994;SDS011;7593;49.006;8.372;2023-03-01T13:59:28;17.50;;;15.75;;
14994;SDS011;7593;49.006;8.372;2023-03-01T14:01:57;18.00;;;16.10;;
14994;SDS011;7593;49.006;8.372;2023-03-01T14:04:26;16.95;;;15.15;;
14994;SDS011;7593;49.006;8.372;2023-03-01T14:07:08;17.48;;;15.60;;
14994;SDS011;7593;49.006;8.372;2023-03-01T14:09:39;19.27;;;15.30;;
14994;SDS011;7593;49.006;8.372;2023-03-01T14:12:15;17.10;;;15.30;;
14994;SDS011;7593;49.006;8.372;2023-03-01T14:14:54;17.30;;;15.45;;
14994;SDS011;7593;49.006;8.372;2023-03-01T14:17:33;17.65;;;15.80;;
14994;SDS011;7593;49.006;8.372;2023-03-01T14:20:10;17.17;;;15.43;;
14994;SDS011;7593;49.006;8.372;2023-03-01T14:22:40;18.60;;;16.23;;
14994;SDS011;7593;49.006;8.372;2023-03-01T14:25:17;16.98;;;15.27;;
14994;SDS011;7593;49.006;8.372;2023-03-01T14:27:51;18.05;;;15.13;;
14994;SDS011;7593;49.006;8.372;2023-03-01T14:30:22;18.70;;;15.88;;
14994;SDS011;7593;49.006;8.372;2023-03-01T14:32:53;17.58;;;14.80;;
14994;SDS011;7593;49.006;8.372;2023-03-01T14:35:21;22.23;;;14.55;;
14994;SDS011;7593;49.006;8.372;2023-03-01T14:37:49;17.23;;;15.15;;
14994;SDS011;7593;49.006;8.372;2023-03-01T14:40:21;18.58;;;14.40;;
14994;SDS011;7593;49.006;8.372;2023-03-01T14:42:50;17.80;;;14.30;;
14994;SDS011;7593;49.006;8.372;2023-03-01T14:45:19;17.63;;;15.38;;
14994;SDS011;7593;49.006;8.372;2023-03-01T14:47:46;17.42;;;15.00;;
14994;SDS011;7593;49.006;8.372;2023-03-01T14:50:18;16.70;;;15.07;;
14994;SDS011;7593;49.006;8.372;2023-03-01T14:52:48;16.17;;;14.55;;
14994;SDS011;7593;49.006;8.372;2023-03-01T14:55:20;17.50;;;15.10;;
14994;SDS011;7593;49.006;8.372;2023-03-01T14:57:51;16.23;;;14.52;;
14994;SDS011;7593;49.006;8.372;2023-03-01T15:00:18;20.10;;;15.55;;
14994;SDS011;7593;49.006;8.372;2023-03-01T15:02:48;16.33;;;14.50;;
14994;SDS011;7593;49.006;8.372;2023-03-01T15:05:22;16.98;;;15.30;;
14994;SDS011;7593;49.006;8.372;2023-03-01T15:07:53;18.02;;;15.10;;
14994;SDS011;7593;49.006;8.372;2023-03-01T15:10:21;16.20;;;14.68;;
14994;SDS011;7593;49.006;8.372;2023-03-01T15:12:50;19.65;;;14.93;;
14994;SDS011;7593;49.006;8.372;2023-03-01T15:15:22;16.23;;;14.60;;
14994;SDS011;7593;49.006;8.372;2023-03-01T15:18:01;15.90;;;14.23;;